sensor_id;sensor_type;location;lat;lon;timestamp;pressure;altitude;pressure_sealevel;temperature;humidity
63652;BME280;49801;37.536;-122.304;2022-07-29T00:00:15;101055.13;;;23.62;42.80
63652;BME280;49801;37.536;-122.304;2022-07-29T00:00:42;101128.34;;;24.10;42.76
63652;BME280;49801;37.536;-122.304;2022-07-29T00:01:14;101132.44;;;23.91;43.25
63652;BME280;49801;37.536;-122.304;2022-07-29T00:01:42;101095.91;;;23.55;43.40
63652;BME280;49801;37.536;-122.304;2022-07-29T00:02:08;101074.56;;;23.33;43.90
63652;BME280;49801;37.536;-122.304;2022-07-29T00:02:35;101114.00;;;23.63;43.65
63652;BME280;49801;37.536;-122.304;2022-07-29T00:03:02;101133.84;;;23.76;43.73
63652;BME280;49801;37.536;-122.304;2022-07-29T00:03:28;101098.25;;;23.63;43.27
63652;BME280;49801;37.536;-122.304;2022-07-29T00:03:54;101122.63;;;23.66;43.56
63652;BME280;49801;37.536;-122.304;2022-07-29T00:04:20;101082.75;;;23.28;43.97
63652;BME280;49801;37.536;-122.304;2022-07-29T00:04:46;101125.22;;;23.56;44.19
63652;BME280;49801;37.536;-122.304;2022-07-29T00:05:13;101126.47;;;23.65;44.38
63652;BME280;49801;37.536;-122.304;2022-07-29T00:05:42;101097.75;;;23.66;43.57
63652;BME280;49801;37.536;-122.304;2022-07-29T00:06:08;101135.22;;;23.91;43.61
63652;BME280;49801;37.536;-122.304;2022-07-29T00:06:54;101129.97;;;23.77;43.85
63652;BME280;49801;37.536;-122.304;2022-07-29T00:07:20;101093.13;;;23.55;43.79
63652;BME280;49801;37.536;-122.304;2022-07-29T00:07:46;101096.69;;;23.67;43.72
63652;BME280;49801;37.536;-122.304;2022-07-29T00:08:13;101137.22;;;24.12;43.12
63652;BME280;49801;37.536;-122.304;2022-07-29T00:08:41;101045.22;;;23.66;43.18
63652;BME280;49801;37.536;-122.304;2022-07-29T00:09:07;101095.50;;;23.97;43.10
63652;BME280;49801;37.536;-122.304;2022-07-29T00:09:33;101081.56;;;24.09;42.98
63652;BME280;49801;37.536;-122.304;2022-07-29T00:10:00;101140.09;;;24.40;42.92
63652;BME280;49801;37.536;-122.304;2022-07-29T00:10:26;101131.69;;;24.12;42.87
63652;BME280;49801;37.536;-122.304;2022-07-29T00:10:52;101103.63;;;23.87;43.04
63652;BME280;49801;37.536;-122.304;2022-07-29T00:11:18;101134.19;;;23.80;43.72
63652;BME280;49801;37.536;-122.304;2022-07-29T00:11:44;101128.81;;;23.73;43.94
63652;BME280;49801;37.536;-122.304;2022-07-29T00:12:10;101139.31;;;23.71;44.16
63652;BME280;49801;37.536;-122.304;2022-07-29T00:12:37;101088.31;;;23.62;43.75
63652;BME280;49801;37.536;-122.304;2022-07-29T00:13:03;101108.91;;;23.71;43.64
63652;BME280;49801;37.536;-122.304;2022-07-29T00:13:29;101139.16;;;23.95;43.66
63652;BME280;49801;37.536;-122.304;2022-07-29T00:13:55;101139.91;;;24.07;43.54
63652;BME280;49801;37.536;-122.304;2022-07-29T00:14:21;101131.69;;;24.12;43.29
63652;BME280;49801;37.536;-122.304;2022-07-29T00:14:47;101125.66;;;23.99;43.35
63652;BME280;49801;37.536;-122.304;2022-07-29T00:15:14;101137.56;;;23.99;43.40
63652;BME280;49801;37.536;-122.304;2022-07-29T00:15:40;101137.06;;;24.02;43.37
63652;BME280;49801;37.536;-122.304;2022-07-29T00:16:06;101141.63;;;24.13;43.24
63652;BME280;49801;37.536;-122.304;2022-07-29T00:16:32;101108.22;;;23.98;43.96
63652;BME280;49801;37.536;-122.304;2022-07-29T00:16:58;101130.78;;;24.29;43.32
63652;BME280;49801;37.536;-122.304;2022-07-29T00:17:24;101147.06;;;24.25;42.94
63652;BME280;49801;37.536;-122.304;2022-07-29T00:17:51;101141.53;;;24.25;43.47
63652;BME280;49801;37.536;-122.304;2022-07-29T00:18:17;101104.59;;;24.14;43.25
63652;BME280;49801;37.536;-122.304;2022-07-29T00:18:43;101138.34;;;24.33;42.97
63652;BME280;49801;37.536;-122.304;2022-07-29T00:19:09;101139.91;;;24.07;43.46
63652;BME280;49801;37.536;-122.304;2022-07-29T00:19:35;101102.69;;;23.64;43.79
63652;BME280;49801;37.536;-122.304;2022-07-29T00:20:01;101152.31;;;23.88;43.87
63652;BME280;49801;37.536;-122.304;2022-07-29T00:20:28;101094.50;;;23.69;43.65
63652;BME280;49801;37.536;-122.304;2022-07-29T00:20:54;101131.03;;;24.05;43.63
63652;BME280;49801;37.536;-122.304;2022-07-29T00:21:20;101133.56;;;23.90;43.90
63652;BME280;49801;37.536;-122.304;2022-07-29T00:21:46;101143.50;;;23.91;43.74
63652;BME280;49801;37.536;-122.304;2022-07-29T00:22:13;101096.16;;;23.70;44.02
63652;BME280;49801;37.536;-122.304;2022-07-29T00:22:39;101139.31;;;24.05;44.22
63652;BME280;49801;37.536;-122.304;2022-07-29T00:23:05;101100.19;;;23.80;43.79
63652;BME280;49801;37.536;-122.304;2022-07-29T00:23:31;101136.03;;;24.08;43.97
63652;BME280;49801;37.536;-122.304;2022-07-29T00:23:57;101136.91;;;23.92;44.25
63652;BME280;49801;37.536;-122.304;2022-07-29T00:24:24;101137.91;;;23.86;44.38
63652;BME280;49801;37.536;-122.304;2022-07-29T00:24:50;101137.22;;;23.95;44.17
63652;BME280;49801;37.536;-122.304;2022-07-29T00:25:16;101104.22;;;23.89;43.96
63652;BME280;49801;37.536;-122.304;2022-07-29T00:25:42;101138.38;;;24.17;43.70
63652;BME280;49801;37.536;-122.304;2022-07-29T00:26:08;101141.22;;;24.22;43.49
63652;BME280;49801;37.536;-122.304;2022-07-29T00:26:34;101135.84;;;24.15;43.66
63652;BME280;49801;37.536;-122.304;2022-07-29T00:27:00;101138.19;;;24.23;43.79
63652;BME280;49801;37.536;-122.304;2022-07-29T00:27:26;101098.19;;;23.92;43.33
63652;BME280;49801;37.536;-122.304;2022-07-29T00:27:52;101067.84;;;23.63;43.71
63652;BME280;49801;37.536;-122.304;2022-07-29T00:28:19;101149.13;;;23.96;44.09
63652;BME280;49801;37.536;-122.304;2022-07-29T00:28:45;101092.81;;;23.68;43.95
63652;BME280;49801;37.536;-122.304;2022-07-29T00:29:11;101136.47;;;24.00;44.20
63652;BME280;49801;37.536;-122.304;2022-07-29T00:29:37;101054.44;;;23.55;44.04
63652;BME280;49801;37.536;-122.304;2022-07-29T00:30:04;101145.50;;;24.12;44.05
63652;BME280;49801;37.536;-122.304;2022-07-29T00:30:30;101148.28;;;24.12;44.24
63652;BME280;49801;37.536;-122.304;2022-07-29T00:30:57;101156.50;;;24.07;44.22
63652;BME280;49801;37.536;-122.304;2022-07-29T00:31:23;101146.84;;;23.93;44.35
63652;BME280;49801;37.536;-122.304;2022-07-29T00:31:49;101133.34;;;23.80;44.38
63652;BME280;49801;37.536;-122.304;2022-07-29T00:32:15;101151.28;;;23.77;44.96
63652;BME280;49801;37.536;-122.304;2022-07-29T00:32:42;101140.53;;;23.64;44.82
63652;BME280;49801;37.536;-122.304;2022-07-29T00:33:09;101138.72;;;23.52;45.34
63652;BME280;49801;37.536;-122.304;2022-07-29T00:33:35;101137.59;;;23.53;45.40
63652;BME280;49801;37.536;-122.304;2022-07-29T00:34:01;101110.63;;;23.27;45.42
63652;BME280;49801;37.536;-122.304;2022-07-29T00:34:28;101105.03;;;23.38;45.52
63652;BME280;49801;37.536;-122.304;2022-07-29T00:35:12;101140.56;;;23.47;45.42
63652;BME280;49801;37.536;-122.304;2022-07-29T00:35:56;101147.88;;;23.41;46.00
63652;BME280;49801;37.536;-122.304;2022-07-29T00:36:23;101108.69;;;23.27;45.88
63652;BME280;49801;37.536;-122.304;2022-07-29T00:36:49;101146.44;;;23.67;45.21
63652;BME280;49801;37.536;-122.304;2022-07-29T00:37:15;101135.19;;;23.57;45.35
63652;BME280;49801;37.536;-122.304;2022-07-29T00:37:41;101139.16;;;23.32;45.90
63652;BME280;49801;37.536;-122.304;2022-07-29T00:38:07;101139.84;;;23.23;46.19
63652;BME280;49801;37.536;-122.304;2022-07-29T00:38:33;101140.66;;;23.23;46.31
63652;BME280;49801;37.536;-122.304;2022-07-29T00:38:59;101131.72;;;23.33;46.18
63652;BME280;49801;37.536;-122.304;2022-07-29T00:39:26;101151.91;;;23.33;46.15
63652;BME280;49801;37.536;-122.304;2022-07-29T00:39:52;101149.59;;;23.01;46.61
63652;BME280;49801;37.536;-122.304;2022-07-29T00:40:18;101093.38;;;22.26;47.34
63652;BME280;49801;37.536;-122.304;2022-07-29T00:40:45;101109.47;;;22.18;48.06
63652;BME280;49801;37.536;-122.304;2022-07-29T00:41:11;101145.19;;;22.48;47.77
63652;BME280;49801;37.536;-122.304;2022-07-29T00:41:38;101095.91;;;22.16;47.72
63652;BME280;49801;37.536;-122.304;2022-07-29T00:42:04;101111.13;;;22.07;48.11
63652;BME280;49801;37.536;-122.304;2022-07-29T00:42:31;101146.41;;;22.40;48.36
63652;BME280;49801;37.536;-122.304;2022-07-29T00:43:07;101104.91;;;22.23;47.96
63652;BME280;49801;37.536;-122.304;2022-07-29T00:43:33;101141.34;;;22.49;48.00
63652;BME280;49801;37.536;-122.304;2022-07-29T00:43:59;101150.00;;;22.41;48.12
63652;BME280;49801;37.536;-122.304;2022-07-29T00:44:25;101144.25;;;22.42;48.08
63652;BME280;49801;37.536;-122.304;2022-07-29T00:44:52;101105.38;;;22.20;47.97
63652;BME280;49801;37.536;-122.304;2022-07-29T00:45:18;101141.97;;;22.39;48.20
63652;BME280;49801;37.536;-122.304;2022-07-29T00:45:45;101150.81;;;22.53;48.18
63652;BME280;49801;37.536;-122.304;2022-07-29T00:46:11;101153.59;;;22.41;48.02
63652;BME280;49801;37.536;-122.304;2022-07-29T00:46:37;101156.22;;;22.48;47.89
63652;BME280;49801;37.536;-122.304;2022-07-29T00:47:04;101140.78;;;22.35;48.08
63652;BME280;49801;37.536;-122.304;2022-07-29T00:47:30;101106.69;;;21.82;48.74
63652;BME280;49801;37.536;-122.304;2022-07-29T00:47:56;101067.28;;;21.70;48.59
63652;BME280;49801;37.536;-122.304;2022-07-29T00:48:22;101086.81;;;21.80;48.58
63652;BME280;49801;37.536;-122.304;2022-07-29T00:48:49;101113.41;;;21.86;49.01
63652;BME280;49801;37.536;-122.304;2022-07-29T00:49:15;101097.34;;;21.71;49.04
63652;BME280;49801;37.536;-122.304;2022-07-29T00:49:42;101144.94;;;22.14;48.97
63652;BME280;49801;37.536;-122.304;2022-07-29T00:50:10;101104.66;;;21.89;48.65
63652;BME280;49801;37.536;-122.304;2022-07-29T00:50:37;101146.38;;;22.05;48.78
63652;BME280;49801;37.536;-122.304;2022-07-29T00:51:05;101140.03;;;22.16;49.03
63652;BME280;49801;37.536;-122.304;2022-07-29T00:51:31;101102.16;;;21.88;48.75
63652;BME280;49801;37.536;-122.304;2022-07-29T00:51:57;101148.31;;;22.16;48.70
63652;BME280;49801;37.536;-122.304;2022-07-29T00:52:24;101145.94;;;22.32;48.58
63652;BME280;49801;37.536;-122.304;2022-07-29T00:52:51;101060.09;;;21.92;48.16
63652;BME280;49801;37.536;-122.304;2022-07-29T00:53:19;101137.00;;;22.53;48.41
63652;BME280;49801;37.536;-122.304;2022-07-29T00:53:45;101151.41;;;22.55;47.95
63652;BME280;49801;37.536;-122.304;2022-07-29T00:54:16;101145.06;;;22.55;48.29
63652;BME280;49801;37.536;-122.304;2022-07-29T00:54:42;101105.84;;;22.41;48.20
63652;BME280;49801;37.536;-122.304;2022-07-29T00:55:14;101146.00;;;22.60;47.88
63652;BME280;49801;37.536;-122.304;2022-07-29T00:55:40;101145.09;;;22.31;48.50
63652;BME280;49801;37.536;-122.304;2022-07-29T00:56:06;101145.59;;;22.28;48.44
63652;BME280;49801;37.536;-122.304;2022-07-29T00:56:33;101145.53;;;22.40;48.70
63652;BME280;49801;37.536;-122.304;2022-07-29T00:57:00;101144.72;;;22.39;48.59
63652;BME280;49801;37.536;-122.304;2022-07-29T00:57:26;101147.13;;;22.36;48.71
63652;BME280;49801;37.536;-122.304;2022-07-29T00:57:53;101108.72;;;22.22;48.52
63652;BME280;49801;37.536;-122.304;2022-07-29T00:58:21;101146.41;;;22.52;48.57
63652;BME280;49801;37.536;-122.304;2022-07-29T00:58:47;101107.31;;;22.32;47.92
63652;BME280;49801;37.536;-122.304;2022-07-29T00:59:14;101107.81;;;22.28;48.04
63652;BME280;49801;37.536;-122.304;2022-07-29T00:59:40;101140.38;;;22.55;48.08
63652;BME280;49801;37.536;-122.304;2022-07-29T01:00:12;101083.78;;;22.17;48.22
63652;BME280;49801;37.536;-122.304;2022-07-29T01:00:39;101094.00;;;22.28;47.83
63652;BME280;49801;37.536;-122.304;2022-07-29T01:01:06;101141.34;;;22.49;48.00
63652;BME280;49801;37.536;-122.304;2022-07-29T01:01:32;101148.88;;;22.54;47.84
63652;BME280;49801;37.536;-122.304;2022-07-29T01:01:58;101119.19;;;22.32;48.09
63652;BME280;49801;37.536;-122.304;2022-07-29T01:02:24;101148.88;;;22.54;47.95
63652;BME280;49801;37.536;-122.304;2022-07-29T01:02:51;101114.38;;;22.27;48.04
63652;BME280;49801;37.536;-122.304;2022-07-29T01:03:17;101117.97;;;22.04;48.28
63652;BME280;49801;37.536;-122.304;2022-07-29T01:03:43;101141.56;;;22.00;49.06
63652;BME280;49801;37.536;-122.304;2022-07-29T01:04:09;101110.66;;;21.63;49.50
63652;BME280;49801;37.536;-122.304;2022-07-29T01:04:35;101116.41;;;21.73;49.60
63652;BME280;49801;37.536;-122.304;2022-07-29T01:05:03;101150.69;;;21.89;49.83
63652;BME280;49801;37.536;-122.304;2022-07-29T01:05:30;101151.72;;;21.64;50.35
63652;BME280;49801;37.536;-122.304;2022-07-29T01:05:57;101150.66;;;21.35;50.97
63652;BME280;49801;37.536;-122.304;2022-07-29T01:06:24;101112.28;;;21.10;50.67
63652;BME280;49801;37.536;-122.304;2022-07-29T01:06:50;101146.50;;;21.44;51.14
63652;BME280;49801;37.536;-122.304;2022-07-29T01:07:18;101058.22;;;20.97;50.51
63652;BME280;49801;37.536;-122.304;2022-07-29T01:07:44;101090.66;;;20.95;51.14
63652;BME280;49801;37.536;-122.304;2022-07-29T01:08:13;101149.13;;;21.09;51.87
63652;BME280;49801;37.536;-122.304;2022-07-29T01:08:40;101149.03;;;21.15;51.73
63652;BME280;49801;37.536;-122.304;2022-07-29T01:09:07;101149.63;;;21.17;51.72
63652;BME280;49801;37.536;-122.304;2022-07-29T01:09:34;101148.84;;;21.29;51.68
63652;BME280;49801;37.536;-122.304;2022-07-29T01:10:03;101084.03;;;20.84;51.54
63652;BME280;49801;37.536;-122.304;2022-07-29T01:10:30;101111.25;;;20.92;51.60
63652;BME280;49801;37.536;-122.304;2022-07-29T01:10:56;101121.22;;;21.05;51.87
63652;BME280;49801;37.536;-122.304;2022-07-29T01:11:23;101151.66;;;21.10;51.66
63652;BME280;49801;37.536;-122.304;2022-07-29T01:11:50;101080.09;;;20.61;52.03
63652;BME280;49801;37.536;-122.304;2022-07-29T01:12:24;101152.59;;;21.04;52.17
63652;BME280;49801;37.536;-122.304;2022-07-29T01:12:52;101146.00;;;21.05;51.96
63652;BME280;49801;37.536;-122.304;2022-07-29T01:13:19;101086.28;;;20.57;52.16
63652;BME280;49801;37.536;-122.304;2022-07-29T01:13:46;101153.22;;;20.88;52.48
63652;BME280;49801;37.536;-122.304;2022-07-29T01:14:13;101158.59;;;20.64;53.15
63652;BME280;49801;37.536;-122.304;2022-07-29T01:14:40;101067.31;;;19.93;53.54
63652;BME280;49801;37.536;-122.304;2022-07-29T01:15:08;101128.38;;;19.95;54.36
63652;BME280;49801;37.536;-122.304;2022-07-29T01:15:41;101125.19;;;19.98;54.50
63652;BME280;49801;37.536;-122.304;2022-07-29T01:16:32;101161.06;;;20.29;54.28
63652;BME280;49801;37.536;-122.304;2022-07-29T01:17:20;101091.38;;;19.73;54.84
63652;BME280;49801;37.536;-122.304;2022-07-29T01:18:32;101170.66;;;20.19;54.96
63652;BME280;49801;37.536;-122.304;2022-07-29T01:20:07;101173.72;;;19.86;55.54
63652;BME280;49801;37.536;-122.304;2022-07-29T01:21:50;101165.03;;;19.57;56.62
63652;BME280;49801;37.536;-122.304;2022-07-29T01:22:27;101159.97;;;19.54;56.68
63652;BME280;49801;37.536;-122.304;2022-07-29T01:24:47;101171.09;;;19.34;57.17
63652;BME280;49801;37.536;-122.304;2022-07-29T01:25:48;101168.75;;;19.38;57.11
63652;BME280;49801;37.536;-122.304;2022-07-29T01:27:32;101166.66;;;18.95;58.58
63652;BME280;49801;37.536;-122.304;2022-07-29T01:29:16;101166.94;;;19.18;57.85
63652;BME280;49801;37.536;-122.304;2022-07-29T01:29:46;101128.94;;;18.70;58.25
63652;BME280;49801;37.536;-122.304;2022-07-29T01:30:15;101174.22;;;18.99;58.49
63652;BME280;49801;37.536;-122.304;2022-07-29T01:30:42;101165.53;;;19.09;58.13
63652;BME280;49801;37.536;-122.304;2022-07-29T01:31:11;101178.81;;;19.12;58.08
63652;BME280;49801;37.536;-122.304;2022-07-29T01:32:28;101174.09;;;19.26;57.73
63652;BME280;49801;37.536;-122.304;2022-07-29T01:32:58;101174.94;;;19.26;57.79
63652;BME280;49801;37.536;-122.304;2022-07-29T01:33:25;101168.22;;;19.22;57.77
63652;BME280;49801;37.536;-122.304;2022-07-29T01:34:18;101154.00;;;18.80;58.62
63652;BME280;49801;37.536;-122.304;2022-07-29T01:34:53;101124.38;;;18.50;59.02
63652;BME280;49801;37.536;-122.304;2022-07-29T01:35:24;101173.63;;;18.77;59.17
63652;BME280;49801;37.536;-122.304;2022-07-29T01:35:51;101163.34;;;18.66;59.56
63652;BME280;49801;37.536;-122.304;2022-07-29T01:37:04;101174.09;;;18.74;59.46
63652;BME280;49801;37.536;-122.304;2022-07-29T01:37:28;101140.63;;;18.45;59.71
63652;BME280;49801;37.536;-122.304;2022-07-29T01:38:38;101178.81;;;18.53;60.18
63652;BME280;49801;37.536;-122.304;2022-07-29T01:39:11;101176.06;;;18.53;60.34
63652;BME280;49801;37.536;-122.304;2022-07-29T01:39:38;101174.78;;;18.43;60.61
63652;BME280;49801;37.536;-122.304;2022-07-29T01:40:19;101178.63;;;18.22;61.34
63652;BME280;49801;37.536;-122.304;2022-07-29T01:40:51;101090.16;;;17.74;60.99
63652;BME280;49801;37.536;-122.304;2022-07-29T01:41:19;101140.72;;;17.98;61.32
63652;BME280;49801;37.536;-122.304;2022-07-29T01:42:01;101186.22;;;18.33;61.22
63652;BME280;49801;37.536;-122.304;2022-07-29T01:42:38;101182.81;;;18.44;60.96
63652;BME280;49801;37.536;-122.304;2022-07-29T01:43:16;101169.34;;;18.36;60.84
63652;BME280;49801;37.536;-122.304;2022-07-29T01:43:50;101184.72;;;18.50;60.80
63652;BME280;49801;37.536;-122.304;2022-07-29T01:44:27;101145.34;;;18.11;60.80
63652;BME280;49801;37.536;-122.304;2022-07-29T01:45:18;101183.47;;;18.33;61.23
63652;BME280;49801;37.536;-122.304;2022-07-29T01:45:50;101164.31;;;18.20;61.46
63652;BME280;49801;37.536;-122.304;2022-07-29T01:46:24;101176.97;;;18.21;61.74
63652;BME280;49801;37.536;-122.304;2022-07-29T01:46:57;101177.19;;;18.26;61.43
63652;BME280;49801;37.536;-122.304;2022-07-29T01:47:31;101181.16;;;18.30;61.70
63652;BME280;49801;37.536;-122.304;2022-07-29T01:48:15;101175.25;;;18.33;61.47
63652;BME280;49801;37.536;-122.304;2022-07-29T01:48:47;101180.75;;;18.20;61.72
63652;BME280;49801;37.536;-122.304;2022-07-29T01:49:17;101188.16;;;18.06;62.26
63652;BME280;49801;37.536;-122.304;2022-07-29T01:49:49;101143.44;;;17.78;62.12
63652;BME280;49801;37.536;-122.304;2022-07-29T01:50:17;101176.09;;;18.13;61.98
63652;BME280;49801;37.536;-122.304;2022-07-29T01:50:52;101183.72;;;18.05;62.23
63652;BME280;49801;37.536;-122.304;2022-07-29T01:51:20;101187.50;;;17.97;62.67
63652;BME280;49801;37.536;-122.304;2022-07-29T01:51:59;101188.34;;;17.91;62.76
63652;BME280;49801;37.536;-122.304;2022-07-29T01:52:42;101144.06;;;17.60;62.58
63652;BME280;49801;37.536;-122.304;2022-07-29T01:53:10;101097.69;;;17.25;63.00
63652;BME280;49801;37.536;-122.304;2022-07-29T01:54:02;101174.41;;;17.86;63.03
63652;BME280;49801;37.536;-122.304;2022-07-29T01:54:51;101186.88;;;17.95;62.80
63652;BME280;49801;37.536;-122.304;2022-07-29T01:55:20;101181.63;;;18.00;62.61
63652;BME280;49801;37.536;-122.304;2022-07-29T01:55:48;101184.16;;;17.88;62.64
63652;BME280;49801;37.536;-122.304;2022-07-29T01:56:18;101189.41;;;17.90;62.82
63652;BME280;49801;37.536;-122.304;2022-07-29T01:56:48;101143.22;;;17.60;63.11
63652;BME280;49801;37.536;-122.304;2022-07-29T01:57:16;101186.88;;;17.95;62.79
63652;BME280;49801;37.536;-122.304;2022-07-29T01:57:46;101144.28;;;17.66;62.77
63652;BME280;49801;37.536;-122.304;2022-07-29T01:58:14;101190.25;;;17.97;62.65
63652;BME280;49801;37.536;-122.304;2022-07-29T01:58:43;101168.75;;;17.94;62.50
63652;BME280;49801;37.536;-122.304;2022-07-29T01:59:11;101149.56;;;17.60;62.95
63652;BME280;49801;37.536;-122.304;2022-07-29T01:59:38;101189.22;;;17.91;62.79
63652;BME280;49801;37.536;-122.304;2022-07-29T02:00:06;101141.53;;;17.72;62.80
63652;BME280;49801;37.536;-122.304;2022-07-29T02:00:34;101182.44;;;17.94;62.71
63652;BME280;49801;37.536;-122.304;2022-07-29T02:01:02;101169.78;;;17.79;63.19
63652;BME280;49801;37.536;-122.304;2022-07-29T02:01:31;101136.69;;;17.61;62.94
63652;BME280;49801;37.536;-122.304;2022-07-29T02:02:00;101109.28;;;17.34;62.87
63652;BME280;49801;37.536;-122.304;2022-07-29T02:02:28;101177.78;;;17.81;63.12
63652;BME280;49801;37.536;-122.304;2022-07-29T02:02:56;101128.66;;;17.39;63.32
63652;BME280;49801;37.536;-122.304;2022-07-29T02:03:25;101173.13;;;17.68;63.39
63652;BME280;49801;37.536;-122.304;2022-07-29T02:03:53;101178.63;;;17.68;63.67
63652;BME280;49801;37.536;-122.304;2022-07-29T02:04:21;101130.53;;;17.32;63.63
63652;BME280;49801;37.536;-122.304;2022-07-29T02:04:49;101180.03;;;17.37;64.62
63652;BME280;49801;37.536;-122.304;2022-07-29T02:05:18;101185.09;;;17.40;64.62
63652;BME280;49801;37.536;-122.304;2022-07-29T02:05:48;101158.53;;;17.28;64.61
63652;BME280;49801;37.536;-122.304;2022-07-29T02:06:21;101170.53;;;17.20;64.87
63652;BME280;49801;37.536;-122.304;2022-07-29T02:06:49;101138.06;;;17.10;64.82
63652;BME280;49801;37.536;-122.304;2022-07-29T02:07:20;101143.97;;;17.07;65.01
63652;BME280;49801;37.536;-122.304;2022-07-29T02:07:47;101182.38;;;17.40;64.93
63652;BME280;49801;37.536;-122.304;2022-07-29T02:08:15;101140.41;;;17.20;64.72
63652;BME280;49801;37.536;-122.304;2022-07-29T02:08:44;101093.34;;;16.76;65.15
63652;BME280;49801;37.536;-122.304;2022-07-29T02:09:13;101176.47;;;17.43;64.52
63652;BME280;49801;37.536;-122.304;2022-07-29T02:09:41;101179.03;;;17.52;64.48
63652;BME280;49801;37.536;-122.304;2022-07-29T02:10:09;101132.44;;;17.32;64.08
63652;BME280;49801;37.536;-122.304;2022-07-29T02:10:37;101184.28;;;17.67;63.93
63652;BME280;49801;37.536;-122.304;2022-07-29T02:11:04;101181.34;;;17.68;64.09
63652;BME280;49801;37.536;-122.304;2022-07-29T02:11:33;101137.28;;;17.43;63.92
63652;BME280;49801;37.536;-122.304;2022-07-29T02:12:03;101178.41;;;17.76;63.60
63652;BME280;49801;37.536;-122.304;2022-07-29T02:12:31;101115.41;;;17.36;63.79
63652;BME280;49801;37.536;-122.304;2022-07-29T02:12:59;101176.69;;;17.62;64.06
63652;BME280;49801;37.536;-122.304;2022-07-29T02:13:27;101136.25;;;17.51;63.46
63652;BME280;49801;37.536;-122.304;2022-07-29T02:13:55;101147.84;;;17.53;63.58
63652;BME280;49801;37.536;-122.304;2022-07-29T02:14:23;101192.50;;;17.67;64.16
63652;BME280;49801;37.536;-122.304;2022-07-29T02:14:52;101187.03;;;17.60;64.42
63652;BME280;49801;37.536;-122.304;2022-07-29T02:15:19;101136.44;;;17.36;64.41
63652;BME280;49801;37.536;-122.304;2022-07-29T02:15:46;101184.50;;;17.65;64.46
63652;BME280;49801;37.536;-122.304;2022-07-29T02:16:15;101189.09;;;17.44;65.05
63652;BME280;49801;37.536;-122.304;2022-07-29T02:16:44;101147.78;;;17.19;65.03
63652;BME280;49801;37.536;-122.304;2022-07-29T02:17:12;101102.69;;;16.95;64.86
63652;BME280;49801;37.536;-122.304;2022-07-29T02:18:05;101188.31;;;17.64;64.58
63652;BME280;49801;37.536;-122.304;2022-07-29T02:18:33;101196.72;;;17.56;64.78
63652;BME280;49801;37.536;-122.304;2022-07-29T02:19:03;101126.69;;;17.06;64.93
63652;BME280;49801;37.536;-122.304;2022-07-29T02:19:32;101122.91;;;17.01;65.20
63652;BME280;49801;37.536;-122.304;2022-07-29T02:20:02;101181.31;;;17.41;64.95
63652;BME280;49801;37.536;-122.304;2022-07-29T02:20:30;101184.06;;;17.55;64.83
63652;BME280;49801;37.536;-122.304;2022-07-29T02:20:59;101184.06;;;17.55;64.91
63652;BME280;49801;37.536;-122.304;2022-07-29T02:21:26;101185.72;;;17.42;65.17
63652;BME280;49801;37.536;-122.304;2022-07-29T02:21:54;101175.19;;;17.26;65.73
63652;BME280;49801;37.536;-122.304;2022-07-29T02:22:24;101184.03;;;17.28;65.72
63652;BME280;49801;37.536;-122.304;2022-07-29T02:22:53;101185.28;;;17.32;65.63
63652;BME280;49801;37.536;-122.304;2022-07-29T02:23:23;101187.00;;;17.40;65.53
63652;BME280;49801;37.536;-122.304;2022-07-29T02:23:51;101188.69;;;17.48;65.00
63652;BME280;49801;37.536;-122.304;2022-07-29T02:24:18;101135.16;;;17.25;64.97
63652;BME280;49801;37.536;-122.304;2022-07-29T02:24:47;101185.75;;;17.56;64.80
63652;BME280;49801;37.536;-122.304;2022-07-29T02:25:16;101189.75;;;17.60;64.85
63652;BME280;49801;37.536;-122.304;2022-07-29T02:25:43;101192.91;;;17.63;64.61
63652;BME280;49801;37.536;-122.304;2022-07-29T02:26:10;101128.41;;;17.28;64.39
63652;BME280;49801;37.536;-122.304;2022-07-29T02:26:37;101167.84;;;17.47;64.48
63652;BME280;49801;37.536;-122.304;2022-07-29T02:27:07;101116.41;;;17.15;64.57
63652;BME280;49801;37.536;-122.304;2022-07-29T02:27:34;101140.22;;;17.28;64.67
63652;BME280;49801;37.536;-122.304;2022-07-29T02:28:02;101105.66;;;17.00;64.74
63652;BME280;49801;37.536;-122.304;2022-07-29T02:28:30;101199.03;;;17.59;64.53
63652;BME280;49801;37.536;-122.304;2022-07-29T02:28:59;101167.19;;;17.31;64.66
63652;BME280;49801;37.536;-122.304;2022-07-29T02:29:27;101102.69;;;16.95;64.60
63652;BME280;49801;37.536;-122.304;2022-07-29T02:29:55;101189.09;;;17.44;64.63
63652;BME280;49801;37.536;-122.304;2022-07-29T02:30:24;101147.78;;;17.13;64.81
63652;BME280;49801;37.536;-122.304;2022-07-29T02:30:52;101192.91;;;17.43;65.04
63652;BME280;49801;37.536;-122.304;2022-07-29T02:31:21;101197.97;;;17.47;64.93
63652;BME280;49801;37.536;-122.304;2022-07-29T02:31:49;101191.25;;;17.56;64.74
63652;BME280;49801;37.536;-122.304;2022-07-29T02:32:17;101180.25;;;17.42;64.89
63652;BME280;49801;37.536;-122.304;2022-07-29T02:32:46;101202.75;;;17.38;65.17
63652;BME280;49801;37.536;-122.304;2022-07-29T02:33:15;101159.97;;;17.17;64.99
63652;BME280;49801;37.536;-122.304;2022-07-29T02:33:43;101157.03;;;17.18;64.81
63652;BME280;49801;37.536;-122.304;2022-07-29T02:34:10;101178.16;;;17.31;64.92
63652;BME280;49801;37.536;-122.304;2022-07-29T02:34:38;101194.56;;;17.44;64.97